sensor_id;sensor_type;location;lat;lon;timestamp;P1;P2;P0
55549;PMS7003;41397;49.972;18.944;2023-05-07T00:01:27;28;26;19
55549;PMS7003;41397;49.972;18.944;2023-05-07T00:04:29;21;21;14
55549;PMS7003;41397;49.972;18.944;2023-05-07T00:07:37;22;22;15
55549;PMS7003;41397;49.972;18.944;2023-05-07T00:10:39;29;27;15
55549;PMS7003;41397;49.972;18.944;2023-05-07T00:13:41;21;21;15
55549;PMS7003;41397;49.972;18.944;2023-05-07T00:16:42;23;23;18
55549;PMS7003;41397;49.972;18.944;2023-05-07T00:19:43;30;26;16
55549;PMS7003;41397;49.972;18.944;2023-05-07T00:22:45;24;24;13
55549;PMS7003;41397;49.972;18.944;2023-05-07T00:25:46;24;23;16
55549;PMS7003;41397;49.972;18.944;2023-05-07T00:28:48;29;27;19
55549;PMS7003;41397;49.972;18.944;2023-05-07T00:31:49;30;28;21
55549;PMS7003;41397;49.972;18.944;2023-05-07T00:34:51;23;23;16
55549;PMS7003;41397;49.972;18.944;2023-05-07T00:37:53;32;30;20
55549;PMS7003;41397;49.972;18.944;2023-05-07T00:40:54;27;26;20
55549;PMS7003;41397;49.972;18.944;2023-05-07T00:43:59;30;27;19
55549;PMS7003;41397;49.972;18.944;2023-05-07T00:47:03;27;26;19
55549;PMS7003;41397;49.972;18.944;2023-05-07T00:50:06;33;30;20
55549;PMS7003;41397;49.972;18.944;2023-05-07T00:53:08;25;24;16
55549;PMS7003;41397;49.972;18.944;2023-05-07T00:56:10;32;28;18
55549;PMS7003;41397;49.972;18.944;2023-05-07T00:59:12;31;29;21
55549;PMS7003;41397;49.972;18.944;2023-05-07T01:02:14;39;34;20
55549;PMS7003;41397;49.972;18.944;2023-05-07T01:05:16;26;25;18
55549;PMS7003;41397;49.972;18.944;2023-05-07T01:08:20;25;23;16
55549;PMS7003;41397;49.972;18.944;2023-05-07T01:11:29;23;23;15
55549;PMS7003;41397;49.972;18.944;2023-05-07T01:14:30;25;24;18
55549;PMS7003;41397;49.972;18.944;2023-05-07T01:17:38;27;26;16
55549;PMS7003;41397;49.972;18.944;2023-05-07T01:20:41;26;25;15
55549;PMS7003;41397;49.972;18.944;2023-05-07T01:23:44;28;27;18
55549;PMS7003;41397;49.972;18.944;2023-05-07T01:26:46;29;27;18
55549;PMS7003;41397;49.972;18.944;2023-05-07T01:29:47;28;26;18
55549;PMS7003;41397;49.972;18.944;2023-05-07T01:32:50;34;31;21
55549;PMS7003;41397;49.972;18.944;2023-05-07T01:35:57;39;29;19
55549;PMS7003;41397;49.972;18.944;2023-05-07T01:39:06;27;26;16
55549;PMS7003;41397;49.972;18.944;2023-05-07T01:42:10;30;28;19
55549;PMS7003;41397;49.972;18.944;2023-05-07T01:45:12;37;32;18
55549;PMS7003;41397;49.972;18.944;2023-05-07T01:48:13;29;27;19
55549;PMS7003;41397;49.972;18.944;2023-05-07T01:51:16;31;28;18
55549;PMS7003;41397;49.972;18.944;2023-05-07T01:54:17;33;30;20
55549;PMS7003;41397;49.972;18.944;2023-05-07T01:57:20;31;29;19
55549;PMS7003;41397;49.972;18.944;2023-05-07T02:00:21;31;28;22
55549;PMS7003;41397;49.972;18.944;2023-05-07T02:03:23;31;29;20
55549;PMS7003;41397;49.972;18.944;2023-05-07T02:06:24;28;26;18
55549;PMS7003;41397;49.972;18.944;2023-05-07T02:09:28;27;26;17
55549;PMS7003;41397;49.972;18.944;2023-05-07T02:12:29;25;25;15
55549;PMS7003;41397;49.972;18.944;2023-05-07T02:15:30;31;29;19
55549;PMS7003;41397;49.972;18.944;2023-05-07T02:18:32;25;25;18
55549;PMS7003;41397;49.972;18.944;2023-05-07T02:21:35;25;24;16
55549;PMS7003;41397;49.972;18.944;2023-05-07T02:24:37;22;20;15
55549;PMS7003;41397;49.972;18.944;2023-05-07T02:27:38;26;26;18
55549;PMS7003;41397;49.972;18.944;2023-05-07T02:30:40;28;25;18
55549;PMS7003;41397;49.972;18.944;2023-05-07T02:33:43;29;27;16
55549;PMS7003;41397;49.972;18.944;2023-05-07T02:36:46;23;23;15
55549;PMS7003;41397;49.972;18.944;2023-05-07T02:39:47;16;16;12
55549;PMS7003;41397;49.972;18.944;2023-05-07T02:42:49;20;20;15
55549;PMS7003;41397;49.972;18.944;2023-05-07T02:49:10;22;22;16
55549;PMS7003;41397;49.972;18.944;2023-05-07T02:52:11;15;15;12
55549;PMS7003;41397;49.972;18.944;2023-05-07T02:55:14;19;17;12
55549;PMS7003;41397;49.972;18.944;2023-05-07T02:58:15;12;12;8
55549;PMS7003;41397;49.972;18.944;2023-05-07T03:01:18;13;13;10
55549;PMS7003;41397;49.972;18.944;2023-05-07T03:04:19;14;14;9
55549;PMS7003;41397;49.972;18.944;2023-05-07T03:07:21;15;15;12
55549;PMS7003;41397;49.972;18.944;2023-05-07T03:10:22;15;15;9
55549;PMS7003;41397;49.972;18.944;2023-05-07T03:13:26;14;14;10
55549;PMS7003;41397;49.972;18.944;2023-05-07T03:16:27;14;14;9
55549;PMS7003;41397;49.972;18.944;2023-05-07T03:19:28;12;12;8
55549;PMS7003;41397;49.972;18.944;2023-05-07T03:22:31;8;8;7
55549;PMS7003;41397;49.972;18.944;2023-05-07T03:25:34;12;12;11
55549;PMS7003;41397;49.972;18.944;2023-05-07T03:28:36;8;8;6
55549;PMS7003;41397;49.972;18.944;2023-05-07T03:31:38;13;13;11
55549;PMS7003;41397;49.972;18.944;2023-05-07T03:34:39;10;10;7
55549;PMS7003;41397;49.972;18.944;2023-05-07T03:37:44;8;8;7
55549;PMS7003;41397;49.972;18.944;2023-05-07T03:40:46;15;15;11
55549;PMS7003;41397;49.972;18.944;2023-05-07T03:43:47;13;13;10
55549;PMS7003;41397;49.972;18.944;2023-05-07T03:46:48;12;12;9
55549;PMS7003;41397;49.972;18.944;2023-05-07T03:49:50;12;12;7
55549;PMS7003;41397;49.972;18.944;2023-05-07T03:52:54;13;13;9
55549;PMS7003;41397;49.972;18.944;2023-05-07T03:55:56;13;13;9
55549;PMS7003;41397;49.972;18.944;2023-05-07T03:58:57;13;13;10
55549;PMS7003;41397;49.972;18.944;2023-05-07T04:01:58;17;17;12
55549;PMS7003;41397;49.972;18.944;2023-05-07T04:05:00;13;13;9
55549;PMS7003;41397;49.972;18.944;2023-05-07T04:08:01;17;14;9
55549;PMS7003;41397;49.972;18.944;2023-05-07T04:11:03;16;16;13
55549;PMS7003;41397;49.972;18.944;2023-05-07T04:14:05;14;14;11
55549;PMS7003;41397;49.972;18.944;2023-05-07T04:17:07;15;15;13
55549;PMS7003;41397;49.972;18.944;2023-05-07T04:20:14;12;12;9
55549;PMS7003;41397;49.972;18.944;2023-05-07T04:23:18;18;18;12
55549;PMS7003;41397;49.972;18.944;2023-05-07T04:26:19;16;16;10
55549;PMS7003;41397;49.972;18.944;2023-05-07T04:29:21;18;18;12
55549;PMS7003;41397;49.972;18.944;2023-05-07T04:32:23;18;18;15
55549;PMS7003;41397;49.972;18.944;2023-05-07T04:35:25;13;13;9
55549;PMS7003;41397;49.972;18.944;2023-05-07T04:38:27;18;18;13
55549;PMS7003;41397;49.972;18.944;2023-05-07T04:41:28;15;15;10
55549;PMS7003;41397;49.972;18.944;2023-05-07T04:44:30;13;13;8
55549;PMS7003;41397;49.972;18.944;2023-05-07T04:47:32;13;13;9
55549;PMS7003;41397;49.972;18.944;2023-05-07T04:50:33;16;16;11
55549;PMS7003;41397;49.972;18.944;2023-05-07T04:53:35;14;14;12
55549;PMS7003;41397;49.972;18.944;2023-05-07T04:56:36;22;22;16
55549;PMS7003;41397;49.972;18.944;2023-05-07T04:59:43;20;19;15
55549;PMS7003;41397;49.972;18.944;2023-05-07T05:02:58;17;17;13
55549;PMS7003;41397;49.972;18.944;2023-05-07T05:06:00;24;23;16
55549;PMS7003;41397;49.972;18.944;2023-05-07T05:09:01;17;17;11
55549;PMS7003;41397;49.972;18.944;2023-05-07T05:12:03;18;18;14
55549;PMS7003;41397;49.972;18.944;2023-05-07T05:15:08;18;18;14
55549;PMS7003;41397;49.972;18.944;2023-05-07T05:18:11;20;20;16
55549;PMS7003;41397;49.972;18.944;2023-05-07T05:21:12;20;20;15
55549;PMS7003;41397;49.972;18.944;2023-05-07T05:24:13;19;19;13
55549;PMS7003;41397;49.972;18.944;2023-05-07T05:27:15;20;20;15
55549;PMS7003;41397;49.972;18.944;2023-05-07T05:30:19;24;24;17
55549;PMS7003;41397;49.972;18.944;2023-05-07T05:33:30;15;15;11
55549;PMS7003;41397;49.972;18.944;2023-05-07T06:00:56;9;9;7
55549;PMS7003;41397;49.972;18.944;2023-05-07T06:03:59;10;10;7
55549;PMS7003;41397;49.972;18.944;2023-05-07T06:10:23;14;14;11
55549;PMS7003;41397;49.972;18.944;2023-05-07T06:13:59;15;15;11
55549;PMS7003;41397;49.972;18.944;2023-05-07T06:17:13;14;14;11
55549;PMS7003;41397;49.972;18.944;2023-05-07T06:20:20;12;12;9
55549;PMS7003;41397;49.972;18.944;2023-05-07T06:23:22;11;11;9
55549;PMS7003;41397;49.972;18.944;2023-05-07T06:26:23;8;8;6
55549;PMS7003;41397;49.972;18.944;2023-05-07T06:29:25;14;14;12
55549;PMS7003;41397;49.972;18.944;2023-05-07T06:36:01;11;11;9
55549;PMS7003;41397;49.972;18.944;2023-05-07T06:49:37;6;6;5
55549;PMS7003;41397;49.972;18.944;2023-05-07T06:59:19;7;7;5
55549;PMS7003;41397;49.972;18.944;2023-05-07T07:13:17;15;15;10
55549;PMS7003;41397;49.972;18.944;2023-05-07T07:23:24;14;14;11
55549;PMS7003;41397;49.972;18.944;2023-05-07T07:26:43;12;12;9
55549;PMS7003;41397;49.972;18.944;2023-05-07T08:11:30;9;9;7
55549;PMS7003;41397;49.972;18.944;2023-05-07T08:24:56;14;14;12
55549;PMS7003;41397;49.972;18.944;2023-05-07T08:42:05;15;15;12
55549;PMS7003;41397;49.972;18.944;2023-05-07T08:59:27;9;9;8
55549;PMS7003;41397;49.972;18.944;2023-05-07T09:02:37;13;13;9
55549;PMS7003;41397;49.972;18.944;2023-05-07T09:05:47;10;10;9
55549;PMS7003;41397;49.972;18.944;2023-05-07T09:09:17;12;12;10
55549;PMS7003;41397;49.972;18.944;2023-05-07T09:16:01;8;8;5
55549;PMS7003;41397;49.972;18.944;2023-05-07T09:43:47;8;8;7
55549;PMS7003;41397;49.972;18.944;2023-05-07T09:46:56;11;11;10
55549;PMS7003;41397;49.972;18.944;2023-05-07T09:50:02;15;15;10
55549;PMS7003;41397;49.972;18.944;2023-05-07T09:53:15;14;14;11
55549;PMS7003;41397;49.972;18.944;2023-05-07T09:56:19;12;12;11
55549;PMS7003;41397;49.972;18.944;2023-05-07T09:59:22;13;13;9
55549;PMS7003;41397;49.972;18.944;2023-05-07T10:02:25;14;14;9
55549;PMS7003;41397;49.972;18.944;2023-05-07T10:05:30;23;22;13
55549;PMS7003;41397;49.972;18.944;2023-05-07T10:11:51;7;7;5
55549;PMS7003;41397;49.972;18.944;2023-05-07T10:14:53;17;14;12
55549;PMS7003;41397;49.972;18.944;2023-05-07T10:17:59;12;12;8
55549;PMS7003;41397;49.972;18.944;2023-05-07T10:21:08;10;10;8
55549;PMS7003;41397;49.972;18.944;2023-05-07T10:24:20;14;14;11
55549;PMS7003;41397;49.972;18.944;2023-05-07T10:27:26;10;10;8
55549;PMS7003;41397;49.972;18.944;2023-05-07T10:30:34;14;13;10
55549;PMS7003;41397;49.972;18.944;2023-05-07T10:33:42;9;9;8
55549;PMS7003;41397;49.972;18.944;2023-05-07T10:36:48;19;19;12
55549;PMS7003;41397;49.972;18.944;2023-05-07T10:39:52;9;9;7
55549;PMS7003;41397;49.972;18.944;2023-05-07T11:03:24;11;11;10
55549;PMS7003;41397;49.972;18.944;2023-05-07T11:06:40;10;10;6
55549;PMS7003;41397;49.972;18.944;2023-05-07T11:16:50;8;8;6
55549;PMS7003;41397;49.972;18.944;2023-05-07T11:20:08;6;6;6
55549;PMS7003;41397;49.972;18.944;2023-05-07T11:29:57;6;6;4
55549;PMS7003;41397;49.972;18.944;2023-05-07T11:36:41;9;9;8
55549;PMS7003;41397;49.972;18.944;2023-05-07T11:43:14;9;9;6
55549;PMS7003;41397;49.972;18.944;2023-05-07T11:46:16;10;10;6
55549;PMS7003;41397;49.972;18.944;2023-05-07T11:49:18;7;7;7
55549;PMS7003;41397;49.972;18.944;2023-05-07T11:52:21;7;7;7
55549;PMS7003;41397;49.972;18.944;2023-05-07T11:55:24;5;5;4
55549;PMS7003;41397;49.972;18.944;2023-05-07T11:58:30;10;10;9
55549;PMS7003;41397;49.972;18.944;2023-05-07T12:05:16;8;8;8
55549;PMS7003;41397;49.972;18.944;2023-05-07T12:08:18;8;8;7
55549;PMS7003;41397;49.972;18.944;2023-05-07T12:11:22;9;9;8
55549;PMS7003;41397;49.972;18.944;2023-05-07T12:14:29;9;9;7
55549;PMS7003;41397;49.972;18.944;2023-05-07T12:17:37;7;7;6
55549;PMS7003;41397;49.972;18.944;2023-05-07T12:21:02;11;11;8
55549;PMS7003;41397;49.972;18.944;2023-05-07T12:24:05;10;10;8
55549;PMS7003;41397;49.972;18.944;2023-05-07T12:27:07;11;11;9
55549;PMS7003;41397;49.972;18.944;2023-05-07T12:30:16;9;9;6
55549;PMS7003;41397;49.972;18.944;2023-05-07T12:33:20;12;12;10
55549;PMS7003;41397;49.972;18.944;2023-05-07T12:42:52;16;16;14
55549;PMS7003;41397;49.972;18.944;2023-05-07T12:52:57;12;12;10
55549;PMS7003;41397;49.972;18.944;2023-05-07T12:59:11;14;14;11
55549;PMS7003;41397;49.972;18.944;2023-05-07T13:09:16;11;11;9
55549;PMS7003;41397;49.972;18.944;2023-05-07T13:12:18;13;13;7
55549;PMS7003;41397;49.972;18.944;2023-05-07T13:15:19;8;8;7
55549;PMS7003;41397;49.972;18.944;2023-05-07T13:18:22;15;15;12
55549;PMS7003;41397;49.972;18.944;2023-05-07T13:24:56;12;12;8
55549;PMS7003;41397;49.972;18.944;2023-05-07T13:27:58;7;7;5
55549;PMS7003;41397;49.972;18.944;2023-05-07T13:30:59;12;12;9
55549;PMS7003;41397;49.972;18.944;2023-05-07T13:34:03;17;17;10
55549;PMS7003;41397;49.972;18.944;2023-05-07T13:37:05;15;15;12
55549;PMS7003;41397;49.972;18.944;2023-05-07T13:46:53;15;15;10
55549;PMS7003;41397;49.972;18.944;2023-05-07T13:49:55;12;12;9
55549;PMS7003;41397;49.972;18.944;2023-05-07T13:52:59;14;14;7
55549;PMS7003;41397;49.972;18.944;2023-05-07T13:56:01;13;13;11
55549;PMS7003;41397;49.972;18.944;2023-05-07T13:59:11;12;12;10
55549;PMS7003;41397;49.972;18.944;2023-05-07T14:02:14;12;12;11
55549;PMS7003;41397;49.972;18.944;2023-05-07T14:05:16;11;11;10
55549;PMS7003;41397;49.972;18.944;2023-05-07T14:08:17;15;15;11
55549;PMS7003;41397;49.972;18.944;2023-05-07T14:11:21;10;10;7
55549;PMS7003;41397;49.972;18.944;2023-05-07T14:14:22;14;14;9
55549;PMS7003;41397;49.972;18.944;2023-05-07T14:17:24;9;9;8
55549;PMS7003;41397;49.972;18.944;2023-05-07T14:20:28;11;11;10
55549;PMS7003;41397;49.972;18.944;2023-05-07T14:30:52;10;10;9
55549;PMS7003;41397;49.972;18.944;2023-05-07T14:33:54;10;10;9
55549;PMS7003;41397;49.972;18.944;2023-05-07T14:36:59;11;11;9
55549;PMS7003;41397;49.972;18.944;2023-05-07T14:43:43;8;8;5
55549;PMS7003;41397;49.972;18.944;2023-05-07T14:46:52;11;11;10
55549;PMS7003;41397;49.972;18.944;2023-05-07T14:49:53;10;10;9
55549;PMS7003;41397;49.972;18.944;2023-05-07T14:52:56;8;8;6
55549;PMS7003;41397;49.972;18.944;2023-05-07T14:55:58;10;10;7
55549;PMS7003;41397;49.972;18.944;2023-05-07T14:59:01;8;8;6
55549;PMS7003;41397;49.972;18.944;2023-05-07T15:02:04;9;9;8
55549;PMS7003;41397;49.972;18.944;2023-05-07T15:05:08;15;15;10
55549;PMS7003;41397;49.972;18.944;2023-05-07T15:08:12;8;8;6
55549;PMS7003;41397;49.972;18.944;2023-05-07T15:11:14;10;10;9
55549;PMS7003;41397;49.972;18.944;2023-05-07T15:14:22;10;10;8
55549;PMS7003;41397;49.972;18.944;2023-05-07T15:17:24;8;8;6
55549;PMS7003;41397;49.972;18.944;2023-05-07T15:20:25;10;10;8
55549;PMS7003;41397;49.972;18.944;2023-05-07T15:23:27;7;7;6
55549;PMS7003;41397;49.972;18.944;2023-05-07T15:26:30;6;6;4
55549;PMS7003;41397;49.972;18.944;2023-05-07T15:29:31;7;7;5
55549;PMS7003;41397;49.972;18.944;2023-05-07T15:36:04;11;11;9
55549;PMS7003;41397;49.972;18.944;2023-05-07T15:46:11;8;8;7
55549;PMS7003;41397;49.972;18.944;2023-05-07T15:52:52;8;8;5
55549;PMS7003;41397;49.972;18.944;2023-05-07T15:55:54;11;11;9
55549;PMS7003;41397;49.972;18.944;2023-05-07T16:02:26;8;8;5
55549;PMS7003;41397;49.972;18.944;2023-05-07T16:19:34;10;10;9
55549;PMS7003;41397;49.972;18.944;2023-05-07T16:22:36;11;11;8
55549;PMS7003;41397;49.972;18.944;2023-05-07T16:25:37;6;6;5
55549;PMS7003;41397;49.972;18.944;2023-05-07T16:28:39;12;12;10
55549;PMS7003;41397;49.972;18.944;2023-05-07T16:31:41;9;9;6
55549;PMS7003;41397;49.972;18.944;2023-05-07T16:34:47;11;11;9
55549;PMS7003;41397;49.972;18.944;2023-05-07T16:43:05;14;14;9
55549;PMS7003;41397;49.972;18.944;2023-05-07T16:46:09;11;11;8
55549;PMS7003;41397;49.972;18.944;2023-05-07T16:49:12;12;12;8
55549;PMS7003;41397;49.972;18.944;2023-05-07T16:52:16;8;8;7
55549;PMS7003;41397;49.972;18.944;2023-05-07T16:55:20;10;10;8
55549;PMS7003;41397;49.972;18.944;2023-05-07T16:58:22;9;9;8
55549;PMS7003;41397;49.972;18.944;2023-05-07T17:01:24;7;7;5
55549;PMS7003;41397;49.972;18.944;2023-05-07T17:04:25;11;11;8
55549;PMS7003;41397;49.972;18.944;2023-05-07T17:07:27;11;11;8
55549;PMS7003;41397;49.972;18.944;2023-05-07T17:10:32;11;11;9
55549;PMS7003;41397;49.972;18.944;2023-05-07T17:13:33;10;10;8
55549;PMS7003;41397;49.972;18.944;2023-05-07T17:16:35;16;16;9
55549;PMS7003;41397;49.972;18.944;2023-05-07T17:19:36;13;13;11
55549;PMS7003;41397;49.972;18.944;2023-05-07T17:22:38;8;8;7
55549;PMS7003;41397;49.972;18.944;2023-05-07T17:25:40;12;12;9
55549;PMS7003;41397;49.972;18.944;2023-05-07T17:28:45;9;9;6
55549;PMS7003;41397;49.972;18.944;2023-05-07T17:31:46;10;10;8
55549;PMS7003;41397;49.972;18.944;2023-05-07T17:34:48;8;8;6
55549;PMS7003;41397;49.972;18.944;2023-05-07T17:37:49;13;13;10
55549;PMS7003;41397;49.972;18.944;2023-05-07T17:40:53;12;12;10
55549;PMS7003;41397;49.972;18.944;2023-05-07T17:43:55;9;9;7
55549;PMS7003;41397;49.972;18.944;2023-05-07T17:46:57;11;11;9
55549;PMS7003;41397;49.972;18.944;2023-05-07T17:49:58;9;9;6
55549;PMS7003;41397;49.972;18.944;2023-05-07T17:52:59;9;9;7
55549;PMS7003;41397;49.972;18.944;2023-05-07T17:56:01;10;10;8
55549;PMS7003;41397;49.972;18.944;2023-05-07T17:59:03;8;8;8
55549;PMS7003;41397;49.972;18.944;2023-05-07T18:02:05;9;9;7
55549;PMS7003;41397;49.972;18.944;2023-05-07T18:05:07;11;11;9
55549;PMS7003;41397;49.972;18.944;2023-05-07T18:08:09;11;11;8
55549;PMS7003;41397;49.972;18.944;2023-05-07T18:11:10;14;14;10
55549;PMS7003;41397;49.972;18.944;2023-05-07T18:14:11;11;11;8
55549;PMS7003;41397;49.972;18.944;2023-05-07T18:17:13;10;10;9
55549;PMS7003;41397;49.972;18.944;2023-05-07T18:20:16;10;10;8
55549;PMS7003;41397;49.972;18.944;2023-05-07T18:23:18;7;7;6
55549;PMS7003;41397;49.972;18.944;2023-05-07T18:26:20;10;10;6
55549;PMS7003;41397;49.972;18.944;2023-05-07T18:29:22;6;6;5
55549;PMS7003;41397;49.972;18.944;2023-05-07T18:32:28;11;11;9
55549;PMS7003;41397;49.972;18.944;2023-05-07T18:35:38;12;12;7
55549;PMS7003;41397;49.972;18.944;2023-05-07T18:49:38;16;16;12
55549;PMS7003;41397;49.972;18.944;2023-05-07T18:56:10;11;11;8
55549;PMS7003;41397;49.972;18.944;2023-05-07T18:59:12;6;6;4
55549;PMS7003;41397;49.972;18.944;2023-05-07T19:02:26;14;14;9
55549;PMS7003;41397;49.972;18.944;2023-05-07T19:08:54;8;8;7
55549;PMS7003;41397;49.972;18.944;2023-05-07T19:11:57;10;10;8
55549;PMS7003;41397;49.972;18.944;2023-05-07T19:14:58;10;9;6
55549;PMS7003;41397;49.972;18.944;2023-05-07T19:21:31;10;10;7
55549;PMS7003;41397;49.972;18.944;2023-05-07T19:24:33;12;12;11
55549;PMS7003;41397;49.972;18.944;2023-05-07T19:27:36;11;11;7
55549;PMS7003;41397;49.972;18.944;2023-05-07T19:30:38;16;16;13
55549;PMS7003;41397;49.972;18.944;2023-05-07T19:33:40;17;17;11
55549;PMS7003;41397;49.972;18.944;2023-05-07T19:36:42;15;15;12
55549;PMS7003;41397;49.972;18.944;2023-05-07T19:39:43;8;8;6
55549;PMS7003;41397;49.972;18.944;2023-05-07T19:42:46;9;9;6
55549;PMS7003;41397;49.972;18.944;2023-05-07T19:45:47;13;13;9
55549;PMS7003;41397;49.972;18.944;2023-05-07T19:48:50;11;11;8
55549;PMS7003;41397;49.972;18.944;2023-05-07T19:51:51;12;12;8
55549;PMS7003;41397;49.972;18.944;2023-05-07T19:54:58;11;11;7
55549;PMS7003;41397;49.972;18.944;2023-05-07T19:57:59;8;8;6
55549;PMS7003;41397;49.972;18.944;2023-05-07T20:07:53;13;13;10
55549;PMS7003;41397;49.972;18.944;2023-05-07T20:10:56;20;20;10
55549;PMS7003;41397;49.972;18.944;2023-05-07T20:13:59;8;8;7
55549;PMS7003;41397;49.972;18.944;2023-05-07T20:17:04;6;6;5
55549;PMS7003;41397;49.972;18.944;2023-05-07T20:20:06;11;11;9
55549;PMS7003;41397;49.972;18.944;2023-05-07T20:23:09;11;11;10
55549;PMS7003;41397;49.972;18.944;2023-05-07T20:26:10;13;11;8
55549;PMS7003;41397;49.972;18.944;2023-05-07T20:29:12;10;10;7
55549;PMS7003;41397;49.972;18.944;2023-05-07T20:32:14;11;11;6
55549;PMS7003;41397;49.972;18.944;2023-05-07T20:35:17;11;11;8
55549;PMS7003;41397;49.972;18.944;2023-05-07T20:38:19;10;10;8
55549;PMS7003;41397;49.972;18.944;2023-05-07T20:41:20;12;12;8
55549;PMS7003;41397;49.972;18.944;2023-05-07T20:44:25;9;9;7
55549;PMS7003;41397;49.972;18.944;2023-05-07T20:47:26;9;9;8
55549;PMS7003;41397;49.972;18.944;2023-05-07T20:50:27;14;14;10
55549;PMS7003;41397;49.972;18.944;2023-05-07T20:53:30;11;11;9
55549;PMS7003;41397;49.972;18.944;2023-05-07T20:56:32;7;7;6
55549;PMS7003;41397;49.972;18.944;2023-05-07T20:59:33;13;13;12
55549;PMS7003;41397;49.972;18.944;2023-05-07T21:02:35;10;10;9
55549;PMS7003;41397;49.972;18.944;2023-05-07T21:05:36;17;17;11
55549;PMS7003;41397;49.972;18.944;2023-05-07T21:08:38;11;11;9
55549;PMS7003;41397;49.972;18.944;2023-05-07T21:11:39;10;10;8
55549;PMS7003;41397;49.972;18.944;2023-05-07T21:14:41;8;8;6
55549;PMS7003;41397;49.972;18.944;2023-05-07T21:17:43;13;13;9
55549;PMS7003;41397;49.972;18.944;2023-05-07T21:20:44;13;13;8
55549;PMS7003;41397;49.972;18.944;2023-05-07T21:23:45;12;12;10
55549;PMS7003;41397;49.972;18.944;2023-05-07T21:26:47;14;13;7
55549;PMS7003;41397;49.972;18.944;2023-05-07T21:29:48;15;15;11
55549;PMS7003;41397;49.972;18.944;2023-05-07T21:32:50;9;9;9
55549;PMS7003;41397;49.972;18.944;2023-05-07T21:35:54;12;12;9
55549;PMS7003;41397;49.972;18.944;2023-05-07T21:38:56;9;9;7
55549;PMS7003;41397;49.972;18.944;2023-05-07T21:41:57;14;12;9
55549;PMS7003;41397;49.972;18.944;2023-05-07T21:44:59;11;11;9
55549;PMS7003;41397;49.972;18.944;2023-05-07T21:48:01;9;9;6
55549;PMS7003;41397;49.972;18.944;2023-05-07T21:51:03;8;8;7
55549;PMS7003;41397;49.972;18.944;2023-05-07T21:54:07;10;10;9
55549;PMS7003;41397;49.972;18.944;2023-05-07T21:57:08;8;8;7
55549;PMS7003;41397;49.972;18.944;2023-05-07T22:00:10;10;10;7
55549;PMS7003;41397;49.972;18.944;2023-05-07T22:03:12;17;17;12
55549;PMS7003;41397;49.972;18.944;2023-05-07T22:06:14;11;11;8
55549;PMS7003;41397;49.972;18.944;2023-05-07T22:09:21;12;12;8
55549;PMS7003;41397;49.972;18.944;2023-05-07T22:12:23;11;11;8
55549;PMS7003;41397;49.972;18.944;2023-05-07T22:15:25;7;7;6
55549;PMS7003;41397;49.972;18.944;2023-05-07T22:18:26;10;10;7
55549;PMS7003;41397;49.972;18.944;2023-05-07T22:21:28;10;10;9
55549;PMS7003;41397;49.972;18.944;2023-05-07T22:24:31;8;8;7
55549;PMS7003;41397;49.972;18.944;2023-05-07T22:27:32;10;10;8
55549;PMS7003;41397;49.972;18.944;2023-05-07T22:30:33;11;11;9
55549;PMS7003;41397;49.972;18.944;2023-05-07T22:33:35;9;9;8
55549;PMS7003;41397;49.972;18.944;2023-05-07T22:36:36;9;9;7
55549;PMS7003;41397;49.972;18.944;2023-05-07T22:39:38;9;9;7
55549;PMS7003;41397;49.972;18.944;2023-05-07T22:42:44;8;8;6
55549;PMS7003;41397;49.972;18.944;2023-05-07T22:45:45;10;10;8
55549;PMS7003;41397;49.972;18.944;2023-05-07T22:48:47;8;8;7
55549;PMS7003;41397;49.972;18.944;2023-05-07T22:51:48;7;7;7
55549;PMS7003;41397;49.972;18.944;2023-05-07T22:54:49;8;8;6
55549;PMS7003;41397;49.972;18.944;2023-05-07T22:57:51;8;8;7
55549;PMS7003;41397;49.972;18.944;2023-05-07T23:00:52;9;9;7
55549;PMS7003;41397;49.972;18.944;2023-05-07T23:03:53;8;8;7
55549;PMS7003;41397;49.972;18.944;2023-05-07T23:06:55;7;7;5
55549;PMS7003;41397;49.972;18.944;2023-05-07T23:09:57;9;9;7
55549;PMS7003;41397;49.972;18.944;2023-05-07T23:12:59;9;9;7
55549;PMS7003;41397;49.972;18.944;2023-05-07T23:16:01;8;8;5
55549;PMS7003;41397;49.972;18.944;2023-05-07T23:19:02;9;9;8
55549;PMS7003;41397;49.972;18.944;2023-05-07T23:22:04;7;7;6
55549;PMS7003;41397;49.972;18.944;2023-05-07T23:25:05;5;5;4
55549;PMS7003;41397;49.972;18.944;2023-05-07T23:28:11;5;5;4
55549;PMS7003;41397;49.972;18.944;2023-05-07T23:31:12;6;6;5
55549;PMS7003;41397;49.972;18.944;2023-05-07T23:34:14;7;7;6
55549;PMS7003;41397;49.972;18.944;2023-05-07T23:37:20;2;2;2
55549;PMS7003;41397;49.972;18.944;2023-05-07T23:40:22;9;9;5
55549;PMS7003;41397;49.972;18.944;2023-05-07T23:43:24;5;5;3
55549;PMS7003;41397;49.972;18.944;2023-05-07T23:46:25;4;4;3
55549;PMS7003;41397;49.972;18.944;2023-05-07T23:49:27;6;6;6
55549;PMS7003;41397;49.972;18.944;2023-05-07T23:52:28;5;5;3
55549;PMS7003;41397;49.972;18.944;2023-05-07T23:55:29;10;10;8
55549;PMS7003;41397;49.972;18.944;2023-05-07T23:58:31;6;6;5
